createdAt,value
2023-01-30T00:00:53.517Z,77.55
2023-01-30T00:03:20.284Z,82.10
2023-01-30T00:05:46.699Z,82.50
2023-01-30T00:08:13.318Z,78.90
2023-01-30T00:10:39.723Z,77.68
2023-01-30T00:13:06.270Z,77.25
2023-01-30T00:15:32.697Z,81.18
2023-01-30T00:17:59.083Z,79.22
2023-01-30T00:20:25.459Z,75.32
2023-01-30T00:23:00.463Z,84.03
2023-01-30T00:25:28.254Z,80.85
2023-01-30T00:27:56.640Z,79.45
2023-01-30T00:30:23.189Z,77.40
2023-01-30T00:32:54.569Z,84.70
2023-01-30T00:35:21.235Z,78.97
2023-01-30T00:37:47.660Z,73.70
2023-01-30T00:40:14.138Z,82.53
2023-01-30T00:42:58.995Z,80.97
2023-01-30T00:45:44.062Z,78.43
2023-01-30T00:48:10.728Z,85.50
2023-01-30T00:50:43.085Z,78.63
2023-01-30T00:53:11.104Z,86.60
2023-01-30T00:55:37.498Z,80.55
2023-01-30T00:58:04.296Z,86.65
2023-01-30T01:00:31.575Z,79.43
2023-01-30T01:02:58.028Z,77.82
2023-01-30T01:05:24.868Z,80.97
2023-01-30T01:07:51.297Z,82.13
2023-01-30T01:10:17.833Z,86.18
2023-01-30T01:12:44.721Z,86.40
2023-01-30T01:15:14.276Z,83.75
2023-01-30T01:17:41.646Z,82.97
2023-01-30T01:20:09.235Z,84.78
2023-01-30T01:22:35.775Z,89.95
2023-01-30T01:25:02.254Z,85.57
2023-01-30T01:27:28.964Z,93.03
2023-01-30T01:29:55.403Z,91.40
2023-01-30T01:32:22.644Z,89.20
2023-01-30T01:34:49.112Z,88.00
2023-01-30T01:37:15.672Z,91.07
2023-01-30T01:40:00.554Z,88.22
2023-01-30T01:42:29.793Z,94.32
2023-01-30T01:45:11.755Z,90.43
2023-01-30T01:47:41.178Z,88.93
2023-01-30T01:50:13.511Z,89.18
2023-01-30T01:52:40.204Z,87.32
2023-01-30T01:55:07.563Z,87.45
2023-01-30T01:57:42.618Z,82.13
2023-01-30T02:00:17.198Z,85.85
2023-01-30T02:02:47.736Z,85.95
2023-01-30T02:05:16.469Z,86.85
2023-01-30T02:07:50.715Z,82.80
2023-01-30T02:10:19.937Z,86.40
2023-01-30T02:12:46.739Z,86.88
2023-01-30T02:15:13.448Z,89.43
2023-01-30T02:17:40.058Z,93.68
2023-01-30T02:20:46.722Z,100.00
2023-01-30T02:23:34.316Z,97.95
2023-01-30T02:26:29.952Z,97.78
2023-01-30T02:29:24.125Z,102.57
2023-01-30T02:31:53.458Z,108.40
2023-01-30T02:35:05.496Z,104.35
2023-01-30T02:38:08.603Z,108.47
2023-01-30T02:40:55.489Z,108.97
2023-01-30T02:43:34.274Z,110.47
2023-01-30T02:46:05.666Z,117.20
2023-01-30T02:48:40.115Z,114.32
2023-01-30T02:51:30.325Z,112.53
2023-01-30T02:53:56.873Z,122.20
2023-01-30T02:56:23.281Z,127.10
2023-01-30T02:58:53.804Z,120.05
2023-01-30T03:01:57.725Z,123.13
2023-01-30T03:04:47.503Z,118.82
2023-01-30T03:07:35.797Z,119.10
2023-01-30T03:10:33.206Z,127.75
2023-01-30T03:13:15.090Z,119.88
2023-01-30T03:15:59.530Z,119.90
2023-01-30T03:18:25.926Z,121.18
2023-01-30T03:20:52.522Z,126.15
2023-01-30T03:23:18.953Z,128.57
2023-01-30T03:25:46.440Z,131.90
2023-01-30T03:28:14.996Z,121.10
2023-01-30T03:30:41.459Z,123.65
2023-01-30T03:33:08.076Z,112.28
2023-01-30T03:35:34.483Z,111.18
2023-01-30T03:38:00.914Z,119.72
2023-01-30T03:40:27.392Z,100.78
2023-01-30T03:42:53.868Z,98.30
2023-01-30T03:45:20.507Z,89.05
2023-01-30T03:47:47.041Z,85.55
2023-01-30T03:50:13.528Z,83.80
2023-01-30T03:52:39.954Z,81.03
2023-01-30T03:55:06.830Z,68.57
2023-01-30T03:57:33.301Z,78.03
2023-01-30T03:59:59.702Z,76.32
2023-01-30T04:02:26.271Z,69.10
2023-01-30T04:04:53.137Z,66.05
2023-01-30T04:07:19.933Z,64.82
2023-01-30T04:09:46.421Z,65.75
2023-01-30T04:12:13.264Z,60.10
2023-01-30T04:14:39.714Z,65.28
2023-01-30T04:17:06.222Z,68.25
2023-01-30T04:19:33.327Z,59.92
2023-01-30T04:21:59.754Z,60.10
2023-01-30T04:24:26.197Z,57.30
2023-01-30T04:26:52.849Z,58.08
2023-01-30T04:29:19.555Z,58.85
2023-01-30T04:31:45.972Z,56.90
2023-01-30T04:34:12.427Z,56.97
2023-01-30T04:36:38.869Z,62.15
2023-01-30T04:39:05.371Z,59.15
2023-01-30T04:41:31.769Z,60.45
2023-01-30T04:43:58.165Z,63.08
2023-01-30T04:46:24.636Z,63.40
2023-01-30T04:48:51.086Z,63.15
2023-01-30T04:51:17.509Z,64.57
2023-01-30T04:53:43.966Z,58.38
2023-01-30T04:56:10.412Z,55.95
2023-01-30T04:58:36.905Z,53.05
2023-01-30T05:01:19.349Z,52.92
2023-01-30T05:03:45.785Z,48.45
2023-01-30T05:06:12.258Z,49.28
2023-01-30T05:08:38.855Z,45.45
2023-01-30T05:11:05.442Z,45.30
2023-01-30T05:13:31.827Z,44.30
2023-01-30T05:15:58.252Z,42.72
2023-01-30T05:18:25.021Z,42.97
2023-01-30T05:20:51.455Z,40.13
2023-01-30T05:23:17.917Z,39.65
2023-01-30T05:25:44.385Z,36.92
2023-01-30T05:28:10.786Z,39.10
2023-01-30T05:30:37.331Z,41.00
2023-01-30T05:33:03.802Z,35.15
2023-01-30T05:35:30.185Z,35.45
2023-01-30T05:37:56.609Z,35.03
2023-01-30T05:40:22.988Z,33.53
2023-01-30T05:42:49.478Z,32.00
2023-01-30T05:45:16.388Z,32.17
2023-01-30T05:47:43.091Z,32.38
2023-01-30T05:50:10.345Z,28.70
2023-01-30T05:52:36.760Z,29.35
2023-01-30T05:55:03.189Z,25.55
2023-01-30T05:57:29.665Z,26.10
2023-01-30T05:59:56.086Z,21.77
2023-01-30T06:02:22.547Z,17.23
2023-01-30T06:04:48.955Z,17.27
2023-01-30T06:07:15.369Z,15.18
2023-01-30T06:09:41.802Z,15.30
2023-01-30T06:12:08.819Z,13.38
2023-01-30T06:14:35.301Z,15.30
2023-01-30T06:17:01.782Z,12.50
2023-01-30T06:19:28.276Z,11.73
2023-01-30T06:21:54.715Z,11.10
2023-01-30T06:24:21.189Z,8.77
2023-01-30T06:26:47.712Z,9.43
2023-01-30T06:29:14.267Z,9.60
2023-01-30T06:31:40.990Z,10.02
2023-01-30T06:34:07.446Z,10.73
2023-01-30T06:36:33.849Z,13.70
2023-01-30T06:39:00.272Z,11.60
2023-01-30T06:41:28.987Z,12.82
2023-01-30T06:43:55.637Z,14.18
2023-01-30T06:46:22.044Z,15.43
2023-01-30T06:48:48.442Z,12.40
2023-01-30T06:51:14.844Z,13.75
2023-01-30T06:53:41.306Z,13.82
2023-01-30T06:56:07.818Z,14.48
2023-01-30T06:58:34.237Z,13.85
2023-01-30T07:01:02.036Z,13.20
2023-01-30T07:03:28.585Z,13.00
2023-01-30T07:05:55.048Z,14.07
2023-01-30T07:08:23.273Z,18.27
2023-01-30T07:10:50.633Z,24.92
2023-01-30T07:13:17.052Z,15.63
2023-01-30T07:15:44.534Z,14.77
2023-01-30T07:18:11.098Z,16.98
2023-01-30T07:20:37.561Z,15.18
2023-01-30T07:23:04.280Z,16.80
2023-01-30T07:25:30.693Z,9.10
2023-01-30T07:28:01.512Z,22.67
2023-01-30T07:30:30.241Z,18.98
2023-01-30T07:32:58.338Z,18.73
2023-01-30T07:35:26.706Z,15.82
2023-01-30T07:37:53.306Z,14.35
2023-01-30T07:40:20.609Z,16.00
2023-01-30T07:43:00.923Z,21.13
2023-01-30T07:45:29.304Z,19.08
2023-01-30T07:47:55.722Z,21.48
2023-01-30T07:50:22.107Z,13.85
2023-01-30T07:52:48.509Z,19.13
2023-01-30T07:55:15.038Z,19.92
2023-01-30T07:57:41.479Z,13.10
2023-01-30T08:00:10.882Z,20.88
2023-01-30T08:02:37.321Z,15.05
2023-01-30T08:05:06.102Z,16.85
2023-01-30T08:07:32.690Z,17.60
2023-01-30T08:09:59.104Z,17.48
2023-01-30T08:12:25.591Z,18.27
2023-01-30T08:14:51.999Z,20.38
2023-01-30T08:17:18.427Z,20.55
2023-01-30T08:19:44.827Z,16.38
2023-01-30T08:22:11.266Z,20.83
2023-01-30T08:24:37.647Z,22.23
2023-01-30T08:27:04.086Z,20.13
2023-01-30T08:29:30.557Z,18.75
2023-01-30T08:32:00.025Z,21.15
2023-01-30T08:34:26.859Z,22.88
2023-01-30T08:36:53.313Z,19.92
2023-01-30T08:39:19.854Z,20.67
2023-01-30T08:41:46.323Z,20.17
2023-01-30T08:44:12.850Z,19.17
2023-01-30T08:46:39.666Z,31.13
2023-01-30T08:49:06.356Z,17.90
2023-01-30T08:51:33.292Z,21.48
2023-01-30T08:53:59.833Z,20.48
2023-01-30T08:56:26.256Z,19.58
2023-01-30T08:58:52.635Z,25.55
2023-01-30T09:01:19.294Z,24.70
2023-01-30T09:03:45.806Z,20.63
2023-01-30T09:06:12.332Z,20.73
2023-01-30T09:08:38.716Z,13.82
2023-01-30T09:11:05.714Z,18.92
2023-01-30T09:13:32.833Z,23.75
2023-01-30T09:15:59.264Z,25.75
2023-01-30T09:18:25.711Z,22.20
2023-01-30T09:20:53.525Z,15.23
2023-01-30T09:23:21.699Z,26.13
2023-01-30T09:25:48.234Z,23.48
2023-01-30T09:28:14.888Z,19.02
2023-01-30T09:30:41.455Z,21.67
2023-01-30T09:33:07.933Z,19.15
2023-01-30T09:35:34.376Z,21.38
2023-01-30T09:38:01.456Z,20.52
2023-01-30T09:40:29.593Z,24.90
2023-01-30T09:43:08.594Z,21.33
2023-01-30T09:45:43.821Z,19.67
2023-01-30T09:48:20.210Z,23.42
2023-01-30T09:51:22.952Z,21.52
2023-01-30T09:53:52.248Z,20.25
2023-01-30T09:56:18.642Z,20.20
2023-01-30T09:58:49.559Z,24.38
2023-01-30T10:01:25.758Z,23.38
2023-01-30T10:04:02.880Z,22.73
2023-01-30T10:06:30.930Z,31.60
2023-01-30T10:09:08.913Z,17.17
2023-01-30T10:11:51.893Z,18.42
2023-01-30T10:14:39.724Z,24.48
2023-01-30T10:17:22.022Z,19.80
2023-01-30T10:20:16.903Z,21.92
2023-01-30T10:22:52.329Z,22.42
2023-01-30T10:25:45.558Z,21.50
2023-01-30T10:28:31.327Z,14.23
2023-01-30T10:31:05.176Z,26.02
2023-01-30T10:33:35.675Z,20.13
2023-01-30T10:36:09.334Z,21.17
2023-01-30T10:38:41.639Z,27.88
2023-01-30T10:41:11.540Z,21.92
2023-01-30T10:44:00.114Z,22.00
2023-01-30T10:46:51.544Z,17.08
2023-01-30T10:49:33.307Z,21.57
2023-01-30T10:52:27.023Z,17.38
2023-01-30T10:55:18.119Z,17.60
2023-01-30T10:57:49.557Z,22.73
2023-01-30T11:00:22.633Z,15.20
2023-01-30T11:03:22.301Z,23.23
2023-01-30T11:05:54.336Z,25.83
2023-01-30T11:08:26.961Z,23.65
2023-01-30T11:10:54.368Z,27.13
2023-01-30T11:13:31.770Z,16.83
2023-01-30T11:16:00.190Z,23.23
2023-01-30T11:19:16.844Z,18.92
2023-01-30T11:21:22.256Z,23.35
2023-01-30T11:23:50.977Z,29.13
2023-01-30T11:26:22.906Z,33.67
2023-01-30T11:28:49.404Z,21.75
2023-01-30T11:31:35.086Z,18.55
2023-01-30T11:34:13.297Z,25.90
2023-01-30T11:36:39.769Z,19.17
2023-01-30T11:39:12.066Z,16.83
2023-01-30T11:42:03.410Z,16.63
2023-01-30T11:44:33.693Z,19.67
2023-01-30T11:47:17.313Z,26.00
2023-01-30T11:50:00.640Z,19.55
2023-01-30T11:52:36.784Z,20.00
2023-01-30T11:55:07.616Z,22.13
2023-01-30T11:57:54.556Z,23.58
2023-01-30T12:00:26.425Z,19.30
2023-01-30T12:02:54.119Z,23.85
2023-01-30T12:05:34.674Z,20.52
2023-01-30T12:08:17.509Z,19.88
2023-01-30T12:11:07.568Z,24.83
2023-01-30T12:13:41.857Z,20.13
2023-01-30T12:16:21.172Z,22.23
2023-01-30T12:18:57.083Z,23.35
2023-01-30T12:21:36.899Z,19.15
2023-01-30T12:24:13.528Z,24.67
2023-01-30T12:27:00.590Z,26.48
2023-01-30T12:29:37.507Z,26.45
2023-01-30T12:32:18.839Z,25.02
2023-01-30T12:34:45.812Z,25.95
2023-01-30T12:37:28.760Z,21.65
2023-01-30T12:40:11.787Z,18.70
2023-01-30T12:42:41.153Z,21.80
2023-01-30T12:45:21.810Z,18.40
2023-01-30T12:47:57.171Z,15.05
2023-01-30T12:50:48.662Z,16.92
2023-01-30T12:53:17.909Z,10.55
2023-01-30T12:56:06.506Z,11.88
2023-01-30T12:58:43.558Z,8.98
2023-01-30T13:01:25.109Z,10.10
2023-01-30T13:04:09.867Z,11.40
2023-01-30T13:07:06.271Z,12.30
2023-01-30T13:10:00.786Z,10.00
2023-01-30T13:12:38.191Z,15.55
2023-01-30T13:15:19.066Z,16.55
2023-01-30T13:18:03.754Z,12.32
2023-01-30T13:20:50.108Z,14.98
2023-01-30T13:23:30.707Z,19.20
2023-01-30T13:25:58.992Z,20.52
2023-01-30T13:28:29.017Z,21.90
2023-01-30T13:30:56.063Z,14.55
2023-01-30T13:33:25.965Z,15.50
2023-01-30T13:35:57.822Z,16.98
2023-01-30T13:38:27.230Z,19.35
2023-01-30T13:40:58.098Z,16.05
2023-01-30T13:43:42.486Z,18.23
2023-01-30T13:46:10.932Z,16.88
2023-01-30T13:48:40.453Z,19.90
2023-01-30T13:51:31.732Z,17.50
2023-01-30T13:54:01.628Z,15.63
2023-01-30T13:56:43.142Z,21.80
2023-01-30T13:59:43.964Z,21.77
2023-01-30T14:02:24.291Z,17.63
2023-01-30T14:04:57.767Z,14.93
2023-01-30T14:07:30.295Z,21.52
2023-01-30T14:12:46.816Z,17.88
2023-01-30T14:15:16.410Z,13.77
2023-01-30T14:17:59.072Z,12.68
2023-01-30T14:20:27.347Z,10.00
2023-01-30T14:23:03.538Z,11.75
2023-01-30T14:25:29.892Z,10.65
2023-01-30T14:27:59.426Z,11.40
2023-01-30T14:30:52.438Z,12.90
2023-01-30T14:33:21.910Z,12.38
2023-01-30T14:35:58.396Z,16.23
2023-01-30T14:38:30.742Z,10.52
2023-01-30T14:41:00.345Z,15.93
2023-01-30T14:43:37.327Z,17.40
2023-01-30T14:46:12.855Z,18.55
2023-01-30T14:48:53.238Z,17.58
2023-01-30T14:51:34.838Z,9.77
2023-01-30T14:54:14.028Z,14.13
2023-01-30T14:56:51.000Z,11.90
2023-01-30T14:59:17.344Z,16.67
2023-01-30T15:02:09.499Z,12.45
2023-01-30T15:04:50.483Z,14.80
2023-01-30T15:07:27.439Z,9.95
2023-01-30T15:10:25.427Z,12.15
2023-01-30T15:13:07.053Z,15.70
2023-01-30T15:16:14.838Z,13.38
2023-01-30T15:19:09.143Z,15.90
2023-01-30T15:21:48.704Z,13.82
2023-01-30T15:24:39.969Z,15.40
2023-01-30T15:27:31.869Z,12.50
2023-01-30T15:30:06.065Z,16.13
2023-01-30T15:32:33.165Z,17.65
2023-01-30T15:35:15.983Z,12.18
2023-01-30T15:37:56.187Z,9.88
2023-01-30T15:40:28.350Z,16.05
2023-01-30T15:43:07.386Z,11.55
2023-01-30T15:45:45.954Z,14.73
2023-01-30T15:48:22.192Z,21.58
2023-01-30T15:50:50.799Z,18.23
2023-01-30T15:53:17.702Z,15.30
2023-01-30T15:55:44.930Z,17.15
2023-01-30T15:58:16.142Z,14.48
2023-01-30T16:00:51.464Z,15.43
2023-01-30T16:03:21.507Z,21.52
2023-01-30T16:05:55.233Z,13.20
2023-01-30T16:08:27.004Z,13.88
2023-01-30T16:10:53.523Z,16.55
2023-01-30T16:13:22.418Z,17.05
2023-01-30T16:15:51.776Z,16.98
2023-01-30T16:18:21.219Z,19.13
2023-01-30T16:21:00.708Z,22.65
2023-01-30T16:23:31.626Z,19.10
2023-01-30T16:25:59.047Z,20.17
2023-01-30T16:28:27.823Z,20.17
2023-01-30T16:31:03.055Z,16.08
2023-01-30T16:33:36.124Z,20.70
2023-01-30T16:36:21.376Z,20.05
2023-01-30T16:38:49.415Z,19.48
2023-01-30T16:41:35.885Z,19.85
2023-01-30T16:44:20.386Z,22.38
2023-01-30T16:47:23.205Z,19.63
2023-01-30T16:49:49.959Z,22.83
2023-01-30T16:52:25.036Z,15.43
2023-01-30T16:54:53.857Z,19.55
2023-01-30T16:57:37.566Z,12.95
2023-01-30T17:00:08.076Z,15.55
2023-01-30T17:02:36.723Z,13.88
2023-01-30T17:05:24.135Z,18.70
2023-01-30T17:07:51.701Z,17.60
2023-01-30T17:10:36.854Z,19.85
2023-01-30T17:13:05.410Z,16.33
2023-01-30T17:15:33.317Z,13.90
2023-01-30T17:17:59.950Z,14.80
2023-01-30T17:20:38.200Z,14.80
2023-01-30T17:23:06.220Z,16.35
2023-01-30T17:25:50.908Z,19.63
2023-01-30T17:28:21.184Z,24.02
2023-01-30T17:30:48.883Z,20.00
2023-01-30T17:33:15.439Z,24.10
2023-01-30T17:35:41.909Z,26.30
2023-01-30T17:38:09.341Z,23.90
2023-01-30T17:40:37.537Z,26.40
2023-01-30T17:43:04.636Z,28.38
2023-01-30T17:45:31.091Z,28.15
2023-01-30T17:47:57.507Z,29.52
2023-01-30T17:50:24.078Z,25.08
2023-01-30T17:52:50.505Z,19.80
2023-01-30T17:55:17.536Z,31.90
2023-01-30T17:57:47.793Z,24.20
2023-01-30T18:00:17.285Z,20.98
2023-01-30T18:02:44.160Z,20.50
2023-01-30T18:05:10.655Z,24.20
2023-01-30T18:07:37.435Z,22.35
2023-01-30T18:10:06.087Z,25.15
2023-01-30T18:12:32.517Z,23.63
2023-01-30T18:14:59.157Z,26.73
2023-01-30T18:17:28.409Z,20.48
2023-01-30T18:19:55.424Z,21.80
2023-01-30T18:22:22.344Z,21.15
2023-01-30T18:24:48.737Z,23.20
2023-01-30T18:27:15.139Z,31.70
2023-01-30T18:29:44.087Z,28.77
2023-01-30T18:32:10.481Z,29.92
2023-01-30T18:34:37.669Z,23.05
2023-01-30T18:37:04.078Z,33.97
2023-01-30T18:39:31.827Z,23.55
2023-01-30T18:41:58.305Z,23.92
2023-01-30T18:44:24.776Z,30.95
2023-01-30T18:46:51.302Z,29.35
2023-01-30T18:49:17.892Z,23.20
2023-01-30T18:51:44.275Z,28.08
2023-01-30T18:54:10.682Z,28.63
2023-01-30T18:56:37.183Z,23.17
2023-01-30T18:59:05.448Z,26.40
2023-01-30T19:01:35.528Z,25.30
2023-01-30T19:04:03.349Z,23.25
2023-01-30T19:06:30.237Z,23.58
2023-01-30T19:08:57.338Z,22.85
2023-01-30T19:11:42.380Z,21.98
2023-01-30T19:14:09.107Z,31.05
2023-01-30T19:16:36.941Z,26.42
2023-01-30T19:19:04.208Z,25.17
2023-01-30T19:21:31.167Z,26.35
2023-01-30T19:23:57.742Z,23.58
2023-01-30T19:26:24.861Z,20.85
2023-01-30T19:28:52.133Z,27.70
2023-01-30T19:31:21.002Z,28.00
2023-01-30T19:33:52.725Z,25.33
2023-01-30T19:36:21.011Z,25.00
2023-01-30T19:38:48.303Z,25.67
2023-01-30T19:41:19.523Z,29.38
2023-01-30T19:43:46.088Z,24.85
2023-01-30T19:46:13.266Z,22.92
2023-01-30T19:48:39.983Z,27.13
2023-01-30T19:51:17.397Z,28.27
2023-01-30T19:53:46.039Z,28.83
2023-01-30T19:56:13.433Z,26.58
2023-01-30T19:58:40.697Z,25.85
2023-01-30T20:01:08.777Z,36.38
2023-01-30T20:03:36.671Z,21.88
2023-01-30T20:06:13.052Z,33.58
2023-01-30T20:08:40.134Z,27.92
2023-01-30T20:11:09.289Z,26.10
2023-01-30T20:13:37.089Z,32.83
2023-01-30T20:16:06.500Z,24.20
2023-01-30T20:18:35.207Z,35.00
2023-01-30T20:21:10.209Z,28.00
2023-01-30T20:23:36.768Z,24.25
2023-01-30T20:26:07.471Z,33.17
2023-01-30T20:28:34.632Z,22.17
2023-01-30T20:31:07.955Z,23.70
2023-01-30T20:33:34.446Z,24.17
2023-01-30T20:36:04.803Z,27.88
2023-01-30T20:38:32.445Z,31.35
2023-01-30T20:41:10.401Z,28.23
2023-01-30T20:43:38.744Z,33.35
2023-01-30T20:46:08.338Z,30.67
2023-01-30T20:48:35.580Z,24.42
2023-01-30T20:51:04.253Z,26.52
2023-01-30T20:53:30.947Z,25.90
2023-01-30T20:55:58.475Z,34.65
2023-01-30T20:58:25.824Z,21.23
2023-01-30T21:00:52.385Z,31.02
2023-01-30T21:03:18.801Z,26.52
2023-01-30T21:05:45.225Z,28.42
2023-01-30T21:08:11.619Z,25.02
2023-01-30T21:10:39.693Z,23.13
2023-01-30T21:13:06.097Z,22.33
2023-01-30T21:15:32.517Z,27.08
2023-01-30T21:17:58.894Z,31.10
2023-01-30T21:20:25.323Z,28.83
2023-01-30T21:22:51.825Z,25.13
2023-01-30T21:25:18.924Z,23.67
2023-01-30T21:27:45.512Z,25.33
2023-01-30T21:30:12.153Z,29.08
2023-01-30T21:32:38.757Z,25.58
2023-01-30T21:35:05.834Z,17.45
2023-01-30T21:37:50.934Z,25.25
2023-01-30T21:40:36.598Z,24.48
2023-01-30T21:43:14.957Z,25.38
2023-01-30T21:45:42.045Z,30.35
2023-01-30T21:48:08.494Z,35.83
2023-01-30T21:50:34.860Z,28.42
2023-01-30T21:53:01.839Z,26.05
2023-01-30T21:55:28.215Z,30.00
2023-01-30T21:57:54.666Z,32.53
2023-01-30T22:00:21.158Z,30.50
2023-01-30T22:02:49.599Z,32.20
2023-01-30T22:05:16.080Z,36.20
2023-01-30T22:07:42.581Z,28.13
2023-01-30T22:10:09.493Z,29.30
2023-01-30T22:12:36.440Z,28.02
2023-01-30T22:15:02.958Z,28.55
2023-01-30T22:17:29.636Z,35.55
2023-01-30T22:19:56.043Z,26.30
2023-01-30T22:22:24.559Z,24.08
2023-01-30T22:24:51.176Z,27.23
2023-01-30T22:27:17.582Z,31.70
2023-01-30T22:29:44.078Z,22.27
2023-01-30T22:32:10.600Z,26.20
2023-01-30T22:34:37.045Z,26.27
2023-01-30T22:37:03.514Z,29.48
2023-01-30T22:39:29.942Z,33.92
2023-01-30T22:41:56.405Z,27.13
2023-01-30T22:44:23.113Z,32.65
2023-01-30T22:46:50.829Z,30.23
2023-01-30T22:49:17.355Z,28.38
2023-01-30T22:51:43.804Z,23.33
2023-01-30T22:54:15.891Z,29.52
2023-01-30T22:56:47.359Z,22.33
2023-01-30T22:59:14.466Z,30.23
2023-01-30T23:01:42.892Z,29.95
2023-01-30T23:04:16.946Z,29.95
2023-01-30T23:06:43.550Z,29.92
2023-01-30T23:09:14.793Z,26.88
2023-01-30T23:12:09.616Z,28.45
2023-01-30T23:14:36.919Z,36.47
2023-01-30T23:17:26.736Z,27.13
2023-01-30T23:19:54.282Z,31.65
2023-01-30T23:22:20.943Z,23.98
2023-01-30T23:24:48.622Z,28.52
2023-01-30T23:27:15.198Z,27.35
2023-01-30T23:29:41.750Z,24.83
2023-01-30T23:32:08.286Z,26.17
2023-01-30T23:34:34.691Z,22.77
2023-01-30T23:37:01.115Z,26.35
2023-01-30T23:39:27.488Z,31.85
2023-01-30T23:41:53.859Z,21.58
2023-01-30T23:44:20.353Z,27.58
2023-01-30T23:46:46.859Z,31.33
2023-01-30T23:49:14.783Z,29.23
2023-01-30T23:51:42.801Z,32.33
2023-01-30T23:54:10.161Z,27.40
2023-01-30T23:56:43.718Z,35.13
2023-01-30T23:59:11.051Z,28.85
